Time;durP1;ratioP1;P1;durP2;ratioP2;P2;SDS_P1;SDS_P2;PMS_P1;PMS_P2;Temp;Humidity;BMP_temperature;BMP_pressure;BME280_temperature;BME280_humidity;BME280_pressure;Samples;Min_cycle;Max_cycle;Signal;HPM_P1;HPM_P2
2022/11/15 00:00:30;;;;;;;6.90;5.37;;;10.20;99.90;;;;;;4673339;28;10001204;-71
2022/11/15 00:02:55;;;;;;;6.82;5.43;;;10.20;99.90;;;;;;5007057;28;20018;-71
2022/11/15 00:05:21;;;;;;;8.02;5.00;;;10.20;99.90;;;;;;5021909;28;20025;-71
2022/11/15 00:07:47;;;;;;;7.35;4.75;;;10.20;99.90;;;;;;5012492;28;20032;-71
2022/11/15 00:10:13;;;;;;;6.45;4.90;;;10.20;99.90;;;;;;5011587;28;20132;-71
2022/11/15 00:12:39;;;;;;;7.18;5.22;;;10.10;99.90;;;;;;5016245;28;20087;-71
2022/11/15 00:15:05;;;;;;;6.80;5.18;;;10.10;99.90;;;;;;5011222;28;20399;-71
2022/11/15 00:17:30;;;;;;;8.27;6.40;;;10.10;99.90;;;;;;5016639;28;20041;-71
2022/11/15 00:19:56;;;;;;;8.98;5.90;;;10.10;99.90;;;;;;5008803;28;20029;-71
2022/11/15 00:22:22;;;;;;;9.32;5.93;;;10.10;99.90;;;;;;5019102;28;20029;-71
2022/11/15 00:24:47;;;;;;;7.63;6.40;;;10.10;99.90;;;;;;5016616;28;20078;-71
2022/11/15 00:27:13;;;;;;;9.15;6.22;;;10.10;99.90;;;;;;5024281;28;20025;-70
2022/11/15 00:29:43;;;;;;;12.70;6.78;;;10.10;99.90;;;;;;5020410;28;20030;-71
2022/11/15 00:32:09;;;;;;;10.75;7.07;;;10.10;99.90;;;;;;5020808;28;20037;-71
2022/11/15 00:34:35;;;;;;;9.05;6.60;;;10.10;99.90;;;;;;5021096;28;20073;-71
2022/11/15 00:37:01;;;;;;;8.50;6.65;;;10.10;99.90;;;;;;5023393;28;20030;-71
2022/11/15 00:39:26;;;;;;;7.90;5.85;;;10.10;99.90;;;;;;5014061;28;20034;-71
2022/11/15 00:41:52;;;;;;;8.10;5.85;;;10.10;99.90;;;;;;5022837;28;20029;-71
2022/11/15 00:44:17;;;;;;;8.60;5.55;;;10.10;99.90;;;;;;5022299;28;20075;-71
2022/11/15 00:46:43;;;;;;;9.02;6.13;;;10.00;99.90;;;;;;5025981;28;20563;-71
2022/11/15 00:49:08;;;;;;;11.80;7.18;;;10.10;99.90;;;;;;5022421;28;20042;-71
2022/11/15 00:51:34;;;;;;;13.15;9.32;;;10.00;99.90;;;;;;5026657;28;20103;-71
2022/11/15 00:54:00;;;;;;;13.93;10.15;;;10.10;99.90;;;;;;5016689;28;20029;-71
2022/11/15 00:56:25;;;;;;;13.50;9.70;;;10.00;99.90;;;;;;5017430;28;20049;-71
2022/11/15 00:58:52;;;;;;;14.32;9.90;;;10.00;99.90;;;;;;5017998;28;20087;-71
2022/11/15 01:01:18;;;;;;;12.77;9.05;;;10.00;99.90;;;;;;5021475;28;20036;-71
2022/11/15 01:03:44;;;;;;;11.00;8.20;;;10.00;99.90;;;;;;5016691;28;20025;-71
2022/11/15 01:06:11;;;;;;;11.35;8.60;;;9.90;99.90;;;;;;5023715;28;20096;-71
2022/11/15 01:08:39;;;;;;;11.30;8.45;;;9.90;99.90;;;;;;5025076;28;20181;-71
2022/11/15 01:11:08;;;;;;;11.48;8.20;;;9.90;99.90;;;;;;5024789;28;20654;-71
2022/11/15 01:13:35;;;;;;;13.13;9.82;;;9.80;99.90;;;;;;5024168;28;20408;-71
2022/11/15 01:16:16;;;;;;;12.43;8.98;;;9.80;99.90;;;;;;5014149;28;20033;-71
2022/11/15 01:18:43;;;;;;;10.93;8.65;;;9.80;99.90;;;;;;5021585;28;20115;-71
2022/11/15 01:21:11;;;;;;;9.95;7.75;;;9.80;99.90;;;;;;5024105;28;20128;-71
2022/11/15 01:23:37;;;;;;;13.07;8.27;;;9.80;99.90;;;;;;5018169;28;20087;-71
2022/11/15 01:26:05;;;;;;;11.98;7.80;;;9.80;99.90;;;;;;5017506;28;20026;-71
2022/11/15 01:28:33;;;;;;;10.75;7.68;;;9.80;99.90;;;;;;5009666;28;20489;-71
2022/11/15 01:31:03;;;;;;;12.70;7.60;;;9.80;99.90;;;;;;5026642;28;20568;-71
2022/11/15 01:33:34;;;;;;;9.88;7.80;;;9.80;99.90;;;;;;5023507;28;20147;-71
2022/11/15 01:36:07;;;;;;;10.80;7.00;;;9.80;99.90;;;;;;5017028;28;20040;-71
2022/11/15 01:38:34;;;;;;;10.15;6.85;;;9.80;99.90;;;;;;5021844;28;20031;-71
2022/11/15 01:40:59;;;;;;;11.82;6.80;;;9.80;99.90;;;;;;5019958;28;20042;-71
2022/11/15 01:43:35;;;;;;;8.15;6.45;;;9.80;99.90;;;;;;5013851;28;20088;-71
2022/11/15 01:46:23;;;;;;;10.93;6.53;;;9.80;99.90;;;;;;5016865;28;20092;-70
2022/11/15 01:48:51;;;;;;;8.15;5.93;;;9.80;99.90;;;;;;5018766;28;20048;-71
2022/11/15 01:51:21;;;;;;;8.73;5.80;;;9.80;99.90;;;;;;5026031;28;20772;-71
2022/11/15 01:53:51;;;;;;;8.73;6.30;;;9.80;99.90;;;;;;5024314;28;20044;-71
2022/11/15 01:56:19;;;;;;;8.18;5.82;;;9.70;99.90;;;;;;5014627;28;20041;-70
2022/11/15 01:58:46;;;;;;;8.00;6.30;;;9.70;99.90;;;;;;5020828;28;20037;-71
2022/11/15 02:01:13;;;;;;;10.15;6.60;;;9.60;99.90;;;;;;5022046;28;20404;-71
2022/11/15 02:04:06;;;;;;;8.45;6.05;;;9.60;99.90;;;;;;5018674;28;20037;-71
2022/11/15 02:06:32;;;;;;;7.43;5.35;;;9.60;99.90;;;;;;5014554;28;20451;-71
2022/11/15 02:08:59;;;;;;;7.88;5.57;;;9.50;99.90;;;;;;5020750;28;20289;-70
2022/11/15 02:11:25;;;;;;;8.30;6.38;;;9.50;99.90;;;;;;5021250;28;20137;-71
2022/11/15 02:13:50;;;;;;;6.93;5.28;;;9.40;99.90;;;;;;5013400;28;20123;-71
2022/11/15 02:16:54;;;;;;;9.45;6.50;;;9.40;99.90;;;;;;5018369;28;20021;-71
2022/11/15 02:19:31;;;;;;;9.40;6.72;;;9.30;99.90;;;;;;5018639;28;20060;-71
2022/11/15 02:22:31;;;;;;;11.18;6.70;;;9.40;99.90;;;;;;5016523;28;20512;-71
2022/11/15 02:24:56;;;;;;;9.07;6.13;;;9.50;99.90;;;;;;5015303;28;20095;-71
2022/11/15 02:27:54;;;;;;;10.63;6.57;;;9.50;99.90;;;;;;5009805;28;20029;-71
2022/11/15 02:30:28;;;;;;;12.63;6.60;;;9.50;99.90;;;;;;5005084;28;20038;-71
2022/11/15 02:33:03;;;;;;;9.88;6.70;;;9.50;99.90;;;;;;5012852;28;20144;-71
2022/11/15 02:35:42;;;;;;;12.07;6.70;;;9.60;99.90;;;;;;5017171;28;20033;-71
2022/11/15 02:38:17;;;;;;;10.00;7.13;;;9.60;99.90;;;;;;5018519;28;20097;-71
2022/11/15 02:40:49;;;;;;;12.25;7.05;;;9.60;99.90;;;;;;5011432;28;20026;-71
2022/11/15 02:43:58;;;;;;;9.57;6.68;;;9.60;99.90;;;;;;5008931;28;20109;-71
2022/11/15 02:47:12;;;;;;;11.55;7.07;;;9.50;99.90;;;;;;5020089;28;20037;-71
2022/11/15 02:49:39;;;;;;;;;;;9.50;99.90;;;;;;5015133;28;20083;-71
2022/11/15 02:52:05;;;;;;;9.85;6.35;;;9.50;99.90;;;;;;5008520;28;19917;-71
2022/11/15 02:54:32;;;;;;;9.73;6.57;;;9.60;99.90;;;;;;5014179;28;20392;-71
2022/11/15 02:57:10;;;;;;;9.43;6.20;;;9.50;99.90;;;;;;5022889;28;20042;-71
2022/11/15 02:59:49;;;;;;;9.77;5.97;;;9.60;99.90;;;;;;5018878;28;20030;-70
2022/11/15 03:02:27;;;;;;;12.35;5.93;;;9.60;99.90;;;;;;5016806;28;20497;-71
2022/11/15 03:05:19;;;;;;;8.40;5.75;;;9.70;99.90;;;;;;5022483;28;20044;-71
2022/11/15 03:08:03;;;;;;;8.10;5.72;;;9.80;99.90;;;;;;5016757;28;20040;-71
2022/11/15 03:10:34;;;;;;;7.50;5.55;;;9.80;99.90;;;;;;5011611;28;20029;-71
2022/11/15 03:13:21;;;;;;;7.75;5.07;;;9.80;99.90;;;;;;5021848;28;20556;-71
2022/11/15 03:16:07;;;;;;;8.95;5.32;;;9.80;99.90;;;;;;5025097;28;20052;-71
2022/11/15 03:18:36;;;;;;;8.77;5.88;;;9.80;99.90;;;;;;5015128;28;20032;-71
2022/11/15 03:21:06;;;;;;;6.68;5.30;;;9.70;99.90;;;;;;5013908;28;20032;-71
2022/11/15 03:23:34;;;;;;;7.82;5.55;;;9.70;99.90;;;;;;5019734;28;20556;-71
2022/11/15 03:26:00;;;;;;;6.90;5.28;;;9.60;99.90;;;;;;5015970;28;20033;-71
2022/11/15 03:28:36;;;;;;;7.88;5.68;;;9.50;99.90;;;;;;5013662;28;20535;-71
2022/11/15 03:31:46;;;;;;;7.38;4.80;;;9.50;99.90;;;;;;5013400;28;20181;-71
2022/11/15 03:33:53;;;;;;;10.75;5.45;;;9.40;99.90;;;;;;5018715;28;20518;-71
2022/11/15 03:36:20;;;;;;;10.40;5.40;;;9.40;99.90;;;;;;5017953;28;20122;-71
2022/11/15 03:38:46;;;;;;;7.05;5.88;;;9.30;99.90;;;;;;5019520;28;20057;-71
2022/11/15 03:41:21;;;;;;;9.88;6.28;;;9.30;99.90;;;;;;5020936;28;20061;-71
2022/11/15 03:44:04;;;;;;;13.20;7.00;;;9.20;99.90;;;;;;5025237;28;20044;-71
2022/11/15 03:46:44;;;;;;;10.63;7.57;;;9.20;99.90;;;;;;5020434;28;20048;-72
2022/11/15 03:49:15;;;;;;;10.82;6.97;;;9.10;99.90;;;;;;5016159;28;20091;-71
2022/11/15 03:51:41;;;;;;;15.57;7.55;;;9.10;99.90;;;;;;5018685;28;20022;-71
2022/11/15 03:54:06;;;;;;;9.65;6.60;;;9.00;99.90;;;;;;5013184;28;20033;-71
2022/11/15 03:56:32;;;;;;;9.65;6.40;;;9.00;99.90;;;;;;5016908;28;20032;-71
2022/11/15 03:58:58;;;;;;;9.30;7.07;;;9.00;99.90;;;;;;5014765;28;20053;-71
2022/11/15 04:01:24;;;;;;;9.52;6.72;;;8.90;99.90;;;;;;5011656;28;20084;-71
2022/11/15 04:03:49;;;;;;;10.55;7.18;;;8.90;99.90;;;;;;5022383;28;20041;-71
2022/11/15 04:06:15;;;;;;;10.93;6.40;;;8.90;99.90;;;;;;5011406;28;20057;-71
2022/11/15 04:08:41;;;;;;;8.43;6.60;;;9.00;99.90;;;;;;5012898;28;20022;-71
2022/11/15 04:11:07;;;;;;;9.68;6.20;;;9.00;99.90;;;;;;5009277;28;20390;-71
2022/11/15 04:13:33;;;;;;;11.02;6.95;;;8.90;99.90;;;;;;5024703;28;20432;-71
2022/11/15 04:15:58;;;;;;;10.88;6.65;;;8.90;99.90;;;;;;5018575;28;20037;-71
2022/11/15 04:18:24;;;;;;;9.73;6.20;;;8.90;99.90;;;;;;5018345;28;20440;-71
2022/11/15 04:26:20;;;;;;;11.73;7.13;;;8.80;99.90;;;;;;5015902;28;20041;-71
2022/11/15 04:31:30;;;;;;;14.70;8.35;;;8.70;99.90;;;;;;5018663;28;20068;-71
2022/11/15 04:33:56;;;;;;;11.70;7.63;;;8.70;99.90;;;;;;5022076;28;20045;-71
2022/11/15 04:39:07;;;;;;;9.02;7.13;;;8.70;99.90;;;;;;5016496;28;20175;-72
2022/11/15 04:41:33;;;;;;;9.30;7.30;;;8.70;99.90;;;;;;5010901;28;20120;-71
2022/11/15 04:43:58;;;;;;;11.38;7.07;;;8.70;99.90;;;;;;5014879;28;20026;-71
2022/11/15 04:46:24;;;;;;;10.23;6.68;;;8.70;99.90;;;;;;5018422;28;20079;-71
2022/11/15 04:48:51;;;;;;;9.13;6.18;;;8.70;99.90;;;;;;5011812;28;20592;-71
2022/11/15 04:51:17;;;;;;;9.48;6.50;;;8.60;99.90;;;;;;5017145;28;20029;-71
2022/11/15 04:53:43;;;;;;;7.47;6.07;;;8.60;99.90;;;;;;5012676;28;20030;-71
2022/11/15 04:56:09;;;;;;;9.50;6.05;;;8.60;99.90;;;;;;5011292;28;20026;-71
2022/11/15 04:58:35;;;;;;;8.40;6.13;;;8.60;99.90;;;;;;5013874;28;20021;-71
2022/11/15 05:01:11;;;;;;;8.98;6.55;;;8.60;99.90;;;;;;5017570;28;20043;-71
2022/11/15 05:06:22;;;;;;;8.98;6.07;;;8.60;99.90;;;;;;5015562;28;20040;-71
2022/11/15 05:08:48;;;;;;;7.80;5.85;;;8.60;99.90;;;;;;5013144;28;20026;-71
2022/11/15 05:11:14;;;;;;;8.98;6.32;;;8.60;99.90;;;;;;5012577;28;20076;-71
2022/11/15 05:13:39;;;;;;;10.40;6.97;;;8.60;99.90;;;;;;5018445;28;20029;-71
2022/11/15 05:16:05;;;;;;;9.38;6.70;;;8.60;99.90;;;;;;5018493;28;20536;-71
2022/11/15 05:18:31;;;;;;;8.13;6.22;;;8.60;99.90;;;;;;5017606;28;20044;-71
2022/11/15 05:21:02;;;;;;;8.00;6.28;;;8.60;99.90;;;;;;5017415;28;20030;-71
2022/11/15 05:23:28;;;;;;;9.85;6.43;;;8.70;99.90;;;;;;5016272;28;20512;-71
2022/11/15 05:25:53;;;;;;;10.45;5.95;;;8.70;99.90;;;;;;5020190;28;20026;-71
2022/11/15 05:28:19;;;;;;;9.15;6.25;;;8.80;99.90;;;;;;5017741;28;20096;-71
2022/11/15 05:30:44;;;;;;;9.52;6.57;;;8.80;99.90;;;;;;5011361;28;20519;-71
2022/11/15 05:33:10;;;;;;;10.65;7.30;;;8.90;99.90;;;;;;5014768;28;20026;-71
2022/11/15 05:35:42;;;;;;;11.05;7.63;;;9.00;99.90;;;;;;5018383;28;20724;-71
2022/11/15 05:38:07;;;;;;;9.25;6.93;;;9.10;99.90;;;;;;5011790;28;20084;-71
2022/11/15 05:40:34;;;;;;;12.90;7.38;;;9.10;99.90;;;;;;5019038;28;20479;-71
2022/11/15 05:43:01;;;;;;;10.02;6.75;;;9.20;99.90;;;;;;5025702;28;20473;-71
2022/11/15 05:45:27;;;;;;;11.00;6.55;;;9.20;99.90;;;;;;5019436;28;20033;-71
2022/11/15 05:47:56;;;;;;;10.60;6.75;;;9.30;99.90;;;;;;5011803;28;20563;-71
2022/11/15 05:50:22;;;;;;;11.18;6.50;;;9.30;99.90;;;;;;5016059;28;20025;-71
2022/11/15 05:52:48;;;;;;;9.63;7.00;;;9.50;99.90;;;;;;5016895;28;20017;-71
2022/11/15 05:55:14;;;;;;;11.60;7.22;;;9.50;99.90;;;;;;5015142;28;20022;-71
2022/11/15 05:57:40;;;;;;;12.00;6.65;;;9.60;99.90;;;;;;5016649;28;20127;-71
2022/11/15 06:00:07;;;;;;;9.25;6.50;;;;;;;;;;5018086;28;20473;-71
2022/11/15 06:02:33;;;;;;;8.65;6.60;;;;;;;;;;5011544;28;20032;-71
2022/11/15 06:05:00;;;;;;;9.63;6.85;;;;;;;;;;5024441;28;20041;-71
2022/11/15 06:07:26;;;;;;;9.73;7.07;;;;;;;;;;5013374;28;20033;-71
2022/11/15 06:09:52;;;;;;;13.85;8.57;;;;;;;;;;5016473;28;20075;-72
2022/11/15 06:12:18;;;;;;;11.88;7.55;;;;;;;;;;5022788;28;20025;-72
2022/11/15 06:14:44;;;;;;;10.38;6.57;;;;;;;;;;5020954;28;20568;-72
2022/11/15 06:17:10;;;;;;;12.23;8.38;;;;;;;;;;5006504;28;20040;-72
2022/11/15 06:19:36;;;;;;;7.57;5.60;;;;;;;;;;5024208;28;20436;-72
2022/11/15 06:22:02;;;;;;;8.50;5.70;;;;;;;;;;5011939;28;20031;-72
2022/11/15 06:24:28;;;;;;;9.65;5.35;;;;;;;;;;5009282;28;20025;-72
2022/11/15 06:26:54;;;;;;;8.40;6.15;;;;;;;;;;5015241;28;20504;-72
2022/11/15 06:29:20;;;;;;;9.77;7.10;;;;;;;;;;5019544;28;20033;-72
2022/11/15 06:31:46;;;;;;;9.82;5.40;;;;;;;;;;5023144;28;20049;-72
2022/11/15 06:34:12;;;;;;;10.85;5.90;;;;;;;;;;5022213;28;20022;-72
2022/11/15 06:36:38;;;;;;;7.97;5.05;;;10.00;99.90;;;;;;5016359;28;20777;-72
2022/11/15 06:39:05;;;;;;;9.65;5.45;;;10.00;99.90;;;;;;5018805;28;20037;-72
2022/11/15 06:41:33;;;;;;;8.30;5.00;;;9.90;99.90;;;;;;5012782;28;20030;-72
2022/11/15 06:43:59;;;;;;;9.38;4.85;;;9.80;99.90;;;;;;5010377;28;20030;-72
2022/11/15 06:46:24;;;;;;;9.25;5.20;;;9.80;99.90;;;;;;5014102;28;21509;-72
2022/11/15 06:48:53;;;;;;;10.30;5.30;;;9.70;99.90;;;;;;5012450;28;20022;-72
2022/11/15 06:51:19;;;;;;;7.75;4.55;;;9.60;99.90;;;;;;5005319;28;20460;-72
2022/11/15 06:53:45;;;;;;;7.43;4.80;;;9.60;99.90;;;;;;5012387;28;20033;-72
2022/11/15 06:56:11;;;;;;;6.82;4.75;;;9.60;99.90;;;;;;5009577;28;20083;-72
2022/11/15 06:58:37;;;;;;;5.80;4.38;;;9.50;99.90;;;;;;5018046;28;20504;-72
2022/11/15 07:01:05;;;;;;;8.27;4.95;;;9.40;99.90;;;;;;5012100;28;20025;-72
2022/11/15 07:03:31;;;;;;;8.63;4.97;;;9.40;99.90;;;;;;5017664;28;20107;-72
2022/11/15 07:05:57;;;;;;;7.70;4.90;;;9.30;99.90;;;;;;5012118;28;20030;-72
2022/11/15 07:08:26;;;;;;;7.65;5.15;;;9.30;99.90;;;;;;5017292;28;20032;-72
2022/11/15 07:10:52;;;;;;;9.73;5.03;;;9.30;99.90;;;;;;5017334;28;20061;-72
2022/11/15 07:13:17;;;;;;;6.95;5.07;;;9.20;99.90;;;;;;5016280;28;20053;-72
2022/11/15 07:15:43;;;;;;;7.03;5.28;;;9.20;99.90;;;;;;5005139;28;20030;-72
2022/11/15 07:18:09;;;;;;;7.45;4.93;;;9.20;99.90;;;;;;5014334;28;20467;-72
2022/11/15 07:20:35;;;;;;;6.63;4.78;;;9.20;99.90;;;;;;5020688;28;20389;-72
2022/11/15 07:23:05;;;;;;;8.05;5.30;;;9.10;99.90;;;;;;5017843;28;20112;-71
2022/11/15 07:25:31;;;;;;;11.40;6.00;;;9.10;99.90;;;;;;5013425;28;20037;-72
2022/11/15 07:27:58;;;;;;;6.35;5.25;;;9.10;99.90;;;;;;5010551;28;20470;-72
2022/11/15 07:30:24;;;;;;;8.90;6.30;;;9.10;99.90;;;;;;5008229;28;20142;-72
2022/11/15 07:33:00;;;;;;;11.13;6.25;;;9.10;99.90;;;;;;5009002;28;20428;-72
2022/11/15 07:35:27;;;;;;;7.10;5.80;;;9.10;99.90;;;;;;5003479;28;20113;-71
2022/11/15 07:38:00;;;;;;;14.20;7.05;;;9.10;99.90;;;;;;5004642;28;20076;-72
2022/11/15 07:40:28;;;;;;;11.40;5.53;;;9.20;99.90;;;;;;5014610;28;20372;-72
2022/11/15 07:43:08;;;;;;;10.13;6.03;;;9.20;99.90;;;;;;5017961;28;20040;-72
2022/11/15 07:45:34;;;;;;;9.52;6.22;;;9.20;99.90;;;;;;5010996;28;20029;-72
2022/11/15 07:48:00;;;;;;;9.88;6.25;;;9.20;99.90;;;;;;5010381;28;20117;-72
2022/11/15 07:50:26;;;;;;;15.18;9.57;;;9.20;99.90;;;;;;5016522;28;20112;-72
2022/11/15 07:52:59;;;;;;;17.48;10.63;;;9.20;99.90;;;;;;5013290;28;20112;-72
2022/11/15 07:55:27;;;;;;;;;;;9.20;99.90;;;;;;5010606;28;20086;-72
2022/11/15 07:57:52;;;;;;;11.15;7.10;;;9.30;99.90;;;;;;5013578;28;20416;-72
2022/11/15 08:00:19;;;;;;;7.72;5.43;;;9.30;99.90;;;;;;5013077;28;20117;-71
2022/11/15 08:02:45;;;;;;;9.35;5.38;;;9.30;99.90;;;;;;5012752;28;20114;-72
2022/11/15 08:05:11;;;;;;;7.45;5.47;;;9.40;99.90;;;;;;5004537;28;20854;-72
2022/11/15 08:07:37;;;;;;;9.52;6.00;;;9.40;99.90;;;;;;5010219;28;20504;-72
2022/11/15 08:10:05;;;;;;;9.60;5.78;;;9.40;99.90;;;;;;5019314;28;20540;-72
2022/11/15 08:12:31;;;;;;;9.35;6.05;;;9.50;99.90;;;;;;5009651;28;20037;-72
2022/11/15 08:14:57;;;;;;;8.48;5.53;;;9.60;99.90;;;;;;5010113;28;20104;-72
2022/11/15 08:17:24;;;;;;;7.93;5.13;;;9.70;99.90;;;;;;5007266;28;20029;-72
2022/11/15 08:19:49;;;;;;;6.60;5.05;;;9.80;99.90;;;;;;5009837;28;20037;-72
2022/11/15 08:22:15;;;;;;;11.63;6.97;;;9.90;99.90;;;;;;5014310;28;20033;-72
2022/11/15 08:24:41;;;;;;;8.48;6.40;;;9.90;99.90;;;;;;5018324;28;20029;-72
2022/11/15 08:27:14;;;;;;;10.32;6.00;;;10.10;99.90;;;;;;5010629;28;20064;-72
2022/11/15 08:29:43;;;;;;;6.25;4.47;;;;;;;;;;5013414;28;20041;-72
2022/11/15 08:32:10;;;;;;;6.63;4.60;;;10.50;99.90;;;;;;5008871;28;20519;-72
2022/11/15 08:34:37;;;;;;;6.00;4.30;;;10.40;99.90;;;;;;5015985;28;20030;-72
2022/11/15 08:37:03;;;;;;;5.88;4.32;;;10.40;99.90;;;;;;5011890;28;20030;-72
2022/11/15 08:39:28;;;;;;;7.80;4.60;;;10.50;99.90;;;;;;5007726;28;20282;-72
2022/11/15 08:41:54;;;;;;;9.02;5.28;;;10.40;99.90;;;;;;5015214;28;20076;-72
2022/11/15 08:44:20;;;;;;;10.70;5.20;;;;;;;;;;5007419;28;20033;-72
2022/11/15 08:46:46;;;;;;;14.20;6.47;;;10.40;99.90;;;;;;5016741;28;20083;-72
2022/11/15 08:49:12;;;;;;;12.23;6.82;;;10.40;99.90;;;;;;5015617;28;20030;-72
2022/11/15 08:51:37;;;;;;;10.68;6.65;;;10.50;99.90;;;;;;5023181;28;20029;-72
2022/11/15 08:54:03;;;;;;;9.73;5.80;;;10.50;99.90;;;;;;5010511;28;20342;-71
2022/11/15 08:56:29;;;;;;;10.45;5.90;;;10.60;99.90;;;;;;5011377;28;20190;-72
2022/11/15 08:58:54;;;;;;;10.70;7.43;;;10.60;99.90;;;;;;5017821;28;20030;-72
2022/11/15 09:01:21;;;;;;;6.85;6.15;;;10.60;99.90;;;;;;5015121;28;20410;-71
2022/11/15 09:03:47;;;;;;;8.35;6.22;;;10.60;99.90;;;;;;5018065;28;20037;-73
2022/11/15 09:06:13;;;;;;;8.18;5.68;;;10.70;99.90;;;;;;5027719;28;20025;-73
2022/11/15 09:08:38;;;;;;;6.90;4.97;;;10.70;99.90;;;;;;5013232;28;20032;-73
2022/11/15 09:11:05;;;;;;;8.93;5.18;;;10.70;99.90;;;;;;5024274;28;20573;-73
2022/11/15 09:13:31;;;;;;;6.80;5.10;;;10.80;99.90;;;;;;5020201;28;20030;-73
2022/11/15 09:16:01;;;;;;;8.50;5.45;;;10.80;99.90;;;;;;5026439;28;20037;-73
2022/11/15 09:18:27;;;;;;;7.28;5.15;;;10.90;99.90;;;;;;5029779;28;20100;-73
2022/11/15 09:21:02;;;;;;;8.85;5.65;;;11.00;99.90;;;;;;5018318;28;20026;-73
2022/11/15 09:23:28;;;;;;;10.35;5.45;;;11.00;99.90;;;;;;5028279;28;20025;-73
2022/11/15 09:26:00;;;;;;;7.28;5.05;;;11.10;99.90;;;;;;5023595;28;20637;-73
2022/11/15 09:28:25;;;;;;;10.18;5.88;;;11.20;99.90;;;;;;5021039;28;20029;-73
2022/11/15 09:30:51;;;;;;;10.85;6.10;;;11.30;99.90;;;;;;5009748;28;20052;-73
2022/11/15 09:33:17;;;;;;;9.85;5.70;;;11.40;99.90;;;;;;5021096;28;20056;-73
2022/11/15 09:35:42;;;;;;;8.38;6.25;;;11.40;99.90;;;;;;5023169;28;20144;-74
2022/11/15 09:38:08;;;;;;;8.15;5.90;;;11.50;99.90;;;;;;5026034;28;20068;-73
2022/11/15 09:40:37;;;;;;;11.65;5.63;;;11.50;99.90;;;;;;5029037;28;20033;-73
2022/11/15 09:43:03;;;;;;;8.57;6.18;;;11.60;99.90;;;;;;5011956;28;20037;-73
2022/11/15 09:45:31;;;;;;;10.57;5.47;;;11.60;99.90;;;;;;5016209;28;20030;-74
2022/11/15 09:48:12;;;;;;;7.65;4.97;;;11.60;99.90;;;;;;5009236;28;20026;-74
2022/11/15 09:50:53;;;;;;;7.85;5.45;;;11.70;99.90;;;;;;5023585;28;20711;-73
2022/11/15 09:53:26;;;;;;;10.18;6.90;;;11.70;99.90;;;;;;5026041;28;20038;-74
2022/11/15 09:56:00;;;;;;;;;;;11.70;99.90;;;;;;5024183;28;20052;-74
2022/11/15 09:58:41;;;;;;;8.95;5.93;;;11.70;99.90;;;;;;5027260;28;19962;-74
2022/11/15 10:01:16;;;;;;;9.30;5.35;;;11.70;99.90;;;;;;5028660;28;20037;-74
2022/11/15 10:03:42;;;;;;;10.75;8.20;;;11.80;99.90;;;;;;5014823;28;20398;-73
2022/11/15 10:06:24;;;;;;;12.85;7.07;;;11.80;99.90;;;;;;5022944;28;20030;-74
2022/11/15 10:08:59;;;;;;;10.15;6.80;;;11.90;99.90;;;;;;5008820;28;20037;-73
2022/11/15 10:11:35;;;;;;;12.98;7.68;;;11.90;99.90;;;;;;5009364;28;20466;-73
2022/11/15 10:14:08;;;;;;;8.20;5.28;;;12.00;99.90;;;;;;5011705;28;20139;-73
2022/11/15 10:16:34;;;;;;;;;;;12.00;99.90;;;;;;5010206;28;20034;-73
2022/11/15 10:19:06;;;;;;;9.18;6.35;;;12.10;99.90;;;;;;5013695;28;19935;-73
2022/11/15 10:21:56;;;;;;;12.52;6.85;;;12.10;99.90;;;;;;5025518;28;20481;-73
2022/11/15 10:24:27;;;;;;;17.20;9.80;;;;;;;;;;5014521;28;20088;-73
2022/11/15 10:26:56;;;;;;;9.07;5.85;;;12.30;99.90;;;;;;5008580;28;20045;-73
2022/11/15 10:29:23;;;;;;;8.07;5.60;;;12.40;99.90;;;;;;5008884;28;20516;-73
2022/11/15 10:31:49;;;;;;;6.88;4.60;;;12.50;99.90;;;;;;5012282;28;20208;-73
2022/11/15 10:34:18;;;;;;;6.53;4.60;;;12.60;99.90;;;;;;5009479;28;20033;-73
2022/11/15 10:36:54;;;;;;;6.00;4.40;;;12.70;99.90;;;;;;5009132;28;20033;-73
2022/11/15 10:39:20;;;;;;;11.15;4.57;;;12.70;99.90;;;;;;5008733;28;20236;-74
2022/11/15 10:41:46;;;;;;;5.95;4.53;;;12.70;99.90;;;;;;5010815;28;20421;-74
2022/11/15 10:44:20;;;;;;;8.15;4.13;;;12.70;99.90;;;;;;5027633;28;20025;-73
2022/11/15 10:47:19;;;;;;;8.25;4.65;;;12.70;99.90;;;;;;5022486;28;20393;-74
2022/11/15 10:49:59;;;;;;;6.57;4.40;;;12.70;99.90;;;;;;5009670;28;20121;-74
2022/11/15 10:52:25;;;;;;;6.47;4.00;;;12.70;99.90;;;;;;5008125;28;20021;-74
2022/11/15 10:55:00;;;;;;;7.30;3.55;;;12.80;99.90;;;;;;5024262;28;20037;-74
2022/11/15 10:57:29;;;;;;;6.00;3.58;;;12.90;99.90;;;;;;5018896;28;20160;-74
2022/11/15 10:59:59;;;;;;;6.95;3.40;;;12.80;99.90;;;;;;5025829;28;20033;-74
2022/11/15 11:02:56;;;;;;;4.55;3.60;;;12.80;99.90;;;;;;5027177;28;20017;-74
2022/11/15 11:05:33;;;;;;;5.20;3.40;;;12.80;99.90;;;;;;5008149;28;20033;-73
2022/11/15 11:08:04;;;;;;;5.22;3.22;;;12.80;99.90;;;;;;5021818;28;20030;-72
2022/11/15 11:10:31;;;;;;;7.13;3.42;;;12.80;99.90;;;;;;5017347;28;20034;-72
2022/11/15 11:13:12;;;;;;;8.27;3.65;;;;;;;;;;5018324;28;20104;-72
2022/11/15 11:15:39;;;;;;;6.90;3.03;;;12.80;99.90;;;;;;5016722;28;20033;-73
2022/11/15 11:18:11;;;;;;;6.85;3.28;;;12.80;99.90;;;;;;5019974;28;20044;-72
2022/11/15 11:20:44;;;;;;;7.07;3.47;;;12.80;99.90;;;;;;5027038;28;20033;-72
2022/11/15 11:23:42;;;;;;;9.10;4.25;;;12.80;99.90;;;;;;5022027;28;20115;-72
2022/11/15 11:26:29;;;;;;;7.50;3.88;;;13.00;99.90;;;;;;5017766;28;20053;-72
2022/11/15 11:29:00;;;;;;;4.40;3.15;;;13.00;99.90;;;;;;5009112;28;20307;-72
2022/11/15 11:31:34;;;;;;;4.68;3.53;;;13.00;99.90;;;;;;5019253;28;20045;-72
2022/11/15 11:34:02;;;;;;;;;;;13.10;99.90;;;;;;5027738;28;20041;-72
2022/11/15 11:36:34;;;;;;;4.90;3.05;;;13.10;99.90;;;;;;5010741;28;19919;-72
2022/11/15 11:39:28;;;;;;;5.72;3.03;;;13.10;99.90;;;;;;5009331;28;20035;-72
2022/11/15 11:42:13;;;;;;;4.43;2.90;;;13.10;99.90;;;;;;5018729;28;20055;-72
2022/11/15 11:44:46;;;;;;;3.95;2.65;;;13.20;99.90;;;;;;5011036;28;20033;-72
2022/11/15 11:47:15;;;;;;;;;;;13.20;99.90;;;;;;5010947;28;20037;-72
2022/11/15 11:49:53;;;;;;;6.55;2.78;;;13.30;99.90;;;;;;5018390;28;19909;-72
2022/11/15 11:52:49;;;;;;;4.28;3.17;;;13.30;99.90;;;;;;5026076;28;20248;-72
2022/11/15 11:55:23;;;;;;;3.20;2.47;;;13.30;99.90;;;;;;5013324;28;20033;-72
2022/11/15 11:58:04;;;;;;;6.93;2.45;;;13.40;99.90;;;;;;5020217;28;20033;-72
2022/11/15 12:00:34;;;;;;;6.00;2.63;;;13.40;99.90;;;;;;5010616;28;20116;-72
2022/11/15 12:03:02;;;;;;;4.75;2.80;;;13.50;99.90;;;;;;5018894;28;20464;-72
2022/11/15 12:05:37;;;;;;;5.82;2.53;;;13.60;99.90;;;;;;5019960;28;20497;-72
2022/11/15 12:08:32;;;;;;;7.05;2.90;;;13.60;99.90;;;;;;5010297;28;20402;-73
2022/11/15 12:11:14;;;;;;;4.82;2.80;;;13.70;99.90;;;;;;5013036;28;20032;-72
2022/11/15 12:13:41;;;;;;;5.70;2.40;;;13.80;99.90;;;;;;5021212;28;20065;-73
2022/11/15 12:16:26;;;;;;;3.95;2.65;;;13.80;99.90;;;;;;5007840;28;20087;-73
2022/11/15 12:18:54;;;;;;;6.47;2.47;;;13.80;99.90;;;;;;5011667;28;20084;-73
2022/11/15 12:21:43;;;;;;;3.28;2.60;;;13.80;99.90;;;;;;5023277;28;20076;-73
2022/11/15 12:24:19;;;;;;;5.38;2.75;;;13.80;99.90;;;;;;5020102;28;20037;-73
2022/11/15 12:26:57;;;;;;;4.85;2.67;;;13.80;99.90;;;;;;5018310;28;20149;-73
2022/11/15 12:29:34;;;;;;;5.03;2.70;;;13.80;99.90;;;;;;5022320;28;20072;-73
2022/11/15 12:32:00;;;;;;;3.65;2.38;;;13.80;99.90;;;;;;5019765;28;20485;-73
2022/11/15 12:34:36;;;;;;;3.47;2.50;;;13.80;99.90;;;;;;5022330;28;20052;-73
2022/11/15 12:37:22;;;;;;;3.55;3.00;;;13.90;99.90;;;;;;5023760;28;20511;-73
2022/11/15 12:40:10;;;;;;;3.95;2.97;;;13.90;99.90;;;;;;5011441;28;20326;-72
2022/11/15 12:42:57;;;;;;;8.43;2.88;;;13.90;99.90;;;;;;5027111;28;20025;-73
2022/11/15 12:45:29;;;;;;;6.10;2.88;;;13.90;99.90;;;;;;5015476;28;20057;-72
2022/11/15 12:48:17;;;;;;;3.53;2.65;;;13.90;99.90;;;;;;5022956;28;20532;-72
2022/11/15 12:50:54;;;;;;;4.80;3.30;;;13.80;99.90;;;;;;5023876;28;20553;-72
2022/11/15 12:53:23;;;;;;;5.75;3.53;;;13.80;99.90;;;;;;5019363;28;20297;-72
2022/11/15 12:56:12;;;;;;;6.88;4.53;;;13.80;99.90;;;;;;5007570;28;20481;-72
2022/11/15 12:58:49;;;;;;;5.38;3.35;;;13.80;99.90;;;;;;5023071;28;20026;-72
2022/11/15 13:01:33;;;;;;;6.55;3.10;;;13.80;99.90;;;;;;5013300;28;20080;-73
2022/11/15 13:04:29;;;;;;;3.33;2.80;;;14.00;99.90;;;;;;5015902;28;20788;-72
2022/11/15 13:06:56;;;;;;;6.82;4.10;;;14.10;99.90;;;;;;5016470;28;20038;-73
2022/11/15 13:09:35;;;;;;;5.97;3.50;;;14.30;99.90;;;;;;5020758;28;20037;-73
2022/11/15 13:12:14;;;;;;;4.95;2.70;;;14.50;99.90;;;;;;5016538;28;20511;-73
2022/11/15 13:14:51;;;;;;;5.68;3.47;;;14.70;99.90;;;;;;5016119;28;20065;-73
2022/11/15 13:17:19;;;;;;;5.80;3.00;;;14.60;99.90;;;;;;5023910;28;20022;-73
2022/11/15 13:20:07;;;;;;;5.70;4.20;;;14.50;99.90;;;;;;5015325;28;20441;-72
2022/11/15 13:22:59;;;;;;;10.63;5.40;;;14.40;99.90;;;;;;5017766;28;20041;-72
2022/11/15 13:25:47;;;;;;;5.57;4.00;;;14.30;99.90;;;;;;5018234;28;20030;-73
2022/11/15 13:28:16;;;;;;;8.73;5.88;;;14.20;99.90;;;;;;4327994;28;10001139;-74